Hamilton, North Carolina
Current Conditions -  °F | °C
As of 2:16 AM on Monday 22 Dec 2014 (Local Time) from KETC Reporting Station
Light Rain Light Rain  
Wind Chill: 33°   Ceiling: 3400
Heat Index: 39°   Visibility: 5mi
Dew Point: 36°   Wind: 9mph
Humidity: 87%   Direction: 20°NNE
Pressure: 30.22"   Gusts: NA
Location:  35.94°N, 77.21°W
Report Text: KETC 220716Z AUTO 02008KT 5SM -RA SCT024 OVC034 04/02 A3022 RMK AO2
Loading
Personal Weather Stations






























Interactive Weather Map New forecast layout! Learn more

10-Day Weather Forecast

Advertisements
Track Severe Weather on mobile